Terminal Aerodrome Forecast
Issued by NWS

Home | Current Version | Previous Version | Graphics & Text | Print | Product List | Glossary On
Versions: 1 2 3 4 5 6 7 8 9 10 11 12 13 14 15
000
FTUS43 KUNR 260500
TAFGCC
TAF
KGCC 260520Z 2606/2706 VRB05KT P6SM SCT040 BKN080
      TEMPO 2606/2610 -SHRA BKN040
     FM261000 16015KT P6SM BKN030
     FM261600 02008KT P6SM BKN040=

USA.gov is the U.S. government's official web portal to all federal, state and local government web resources and services.